createdAt,value
2018-06-02T00:00:02.692Z,1006
2018-06-02T00:01:04.737Z,1006
2018-06-02T00:02:06.782Z,1006
2018-06-02T00:03:09.119Z,1006
2018-06-02T00:04:11.154Z,1006
2018-06-02T00:05:13.194Z,1006
2018-06-02T00:06:15.544Z,1006
2018-06-02T00:07:17.589Z,1006
2018-06-02T00:08:19.624Z,1006
2018-06-02T00:09:22.059Z,1006
2018-06-02T00:10:24.099Z,1006
2018-06-02T00:11:26.148Z,1005.9
2018-06-02T00:12:28.182Z,1005.9
2018-06-02T00:13:30.237Z,1005.9
2018-06-02T00:14:32.668Z,1005.8
2018-06-02T00:15:34.710Z,1005.9
2018-06-02T00:16:36.756Z,1005.8
2018-06-02T00:17:38.802Z,1005.8
2018-06-02T00:18:40.849Z,1005.8
2018-06-02T00:19:43.560Z,1005.8
2018-06-02T00:20:45.599Z,1005.8
2018-06-02T00:21:47.928Z,1005.8
2018-06-02T00:22:49.968Z,1005.8
2018-06-02T00:23:52.018Z,1005.8
2018-06-02T00:24:54.066Z,1005.8
2018-06-02T00:25:56.113Z,1005.8
2018-06-02T00:26:58.450Z,1005.9
2018-06-02T00:28:00.483Z,1005.9
2018-06-02T00:29:02.534Z,1005.9
2018-06-02T00:30:04.589Z,1005.9
2018-06-02T00:31:06.632Z,1005.9
2018-06-02T00:32:08.681Z,1005.9
2018-06-02T00:33:10.722Z,1005.9
2018-06-02T00:34:12.769Z,1006
2018-06-02T00:35:15.198Z,1006
2018-06-02T00:36:17.243Z,1006
2018-06-02T00:37:19.572Z,1005.9
2018-06-02T00:38:21.917Z,1006
2018-06-02T00:39:23.946Z,1006
2018-06-02T00:40:26.375Z,1006
2018-06-02T00:41:28.433Z,1006
2018-06-02T00:42:30.764Z,1006
2018-06-02T00:43:33.084Z,1006
2018-06-02T00:44:35.134Z,1006
2018-06-02T00:45:37.466Z,1006.1
2018-06-02T00:46:39.518Z,1006.1
2018-06-02T00:47:41.553Z,1006.1
2018-06-02T00:48:43.602Z,1006
2018-06-02T00:49:45.926Z,1006.1
2018-06-02T00:50:47.972Z,1006.1
2018-06-02T00:51:50.017Z,1006
2018-06-02T00:52:52.051Z,1006
2018-06-02T00:53:54.708Z,1006
2018-06-02T00:54:56.751Z,1006
2018-06-02T00:55:58.794Z,1006
2018-06-02T00:57:00.851Z,1006
2018-06-02T00:58:02.887Z,1006
2018-06-02T00:59:04.932Z,1006
2018-06-02T01:00:06.974Z,1006
2018-06-02T01:01:09.029Z,1006
2018-06-02T01:02:11.388Z,1006
2018-06-02T01:03:13.422Z,1006
2018-06-02T01:04:15.466Z,1006
2018-06-02T01:05:17.523Z,1006
2018-06-02T01:06:19.563Z,1006
2018-06-02T01:07:21.601Z,1006
2018-06-02T01:08:23.651Z,1006
2018-06-02T01:09:25.693Z,1006
2018-06-02T01:10:28.329Z,1006
2018-06-02T01:11:30.373Z,1006.1
2018-06-02T01:12:32.417Z,1006
2018-06-02T01:13:34.457Z,1006.1
2018-06-02T01:14:36.515Z,1006.1
2018-06-02T01:15:38.554Z,1006.1
2018-06-02T01:16:40.597Z,1006
2018-06-02T01:17:43.035Z,1006.1
2018-06-02T01:18:45.087Z,1006.1
2018-06-02T01:19:47.120Z,1006.1
2018-06-02T01:20:49.179Z,1006.1
2018-06-02T01:21:51.217Z,1006.1
2018-06-02T01:22:53.553Z,1006.1
2018-06-02T01:23:55.587Z,1006.2
2018-06-02T01:24:57.629Z,1006.1
2018-06-02T01:25:59.685Z,1006.1
2018-06-02T01:27:01.719Z,1006.1
2018-06-02T01:28:03.762Z,1006.1
2018-06-02T01:29:05.816Z,1006.1
2018-06-02T01:30:07.868Z,1006.1
2018-06-02T01:31:09.900Z,1006.2
2018-06-02T01:32:11.943Z,1006.2
2018-06-02T01:33:14.271Z,1006.2
2018-06-02T01:34:16.319Z,1006.2
2018-06-02T01:35:18.345Z,1006.2
2018-06-02T01:36:20.404Z,1006.2
2018-06-02T01:37:22.444Z,1006.1
2018-06-02T01:38:24.480Z,1006.1
2018-06-02T01:39:26.528Z,1006.1
2018-06-02T01:40:28.572Z,1006.1
2018-06-02T01:41:30.895Z,1006.1
2018-06-02T01:42:33.246Z,1006
2018-06-02T01:43:35.571Z,1006.1
2018-06-02T01:44:37.612Z,1006.1
2018-06-02T01:45:39.959Z,1006.1
2018-06-02T01:46:42.288Z,1006.1
2018-06-02T01:47:44.323Z,1006.1
2018-06-02T01:48:46.373Z,1006.1
2018-06-02T01:49:48.419Z,1006
2018-06-02T01:50:50.457Z,1006
2018-06-02T01:51:52.505Z,1006
2018-06-02T01:52:54.544Z,1006
2018-06-02T01:53:56.882Z,1006
2018-06-02T01:54:58.913Z,1006
2018-06-02T01:56:01.343Z,1006
2018-06-02T01:57:03.674Z,1006
2018-06-02T01:58:05.719Z,1006
2018-06-02T01:59:07.765Z,1006.1
2018-06-02T02:00:10.089Z,1006
2018-06-02T02:01:12.456Z,1006.1
2018-06-02T02:02:14.497Z,1006.1
2018-06-02T02:03:16.545Z,1006.1
2018-06-02T02:04:18.592Z,1006.1
2018-06-02T02:05:21.018Z,1006.1
2018-06-02T02:06:23.056Z,1006.1
2018-06-02T02:07:25.088Z,1006.2
2018-06-02T02:08:27.132Z,1006.1
2018-06-02T02:09:29.175Z,1006.1
2018-06-02T02:10:32.117Z,1006.1
2018-06-02T02:11:34.161Z,1006.1
2018-06-02T02:12:36.201Z,1006.1
2018-06-02T02:13:38.239Z,1006.2
2018-06-02T02:14:40.275Z,1006.2
2018-06-02T02:15:42.314Z,1006.1
2018-06-02T02:16:45.060Z,1006.2
2018-06-02T02:17:47.102Z,1006.1
2018-06-02T02:18:49.151Z,1006.1
2018-06-02T02:19:51.195Z,1006
2018-06-02T02:20:53.240Z,1006
2018-06-02T02:21:55.283Z,1006
2018-06-02T02:22:57.321Z,1006
2018-06-02T02:23:59.370Z,1006
2018-06-02T02:25:01.409Z,1006
2018-06-02T02:26:03.464Z,1006
2018-06-02T02:27:05.532Z,1006.1
2018-06-02T02:28:07.561Z,1006
2018-06-02T02:29:09.612Z,1006
2018-06-02T02:30:11.660Z,1006
2018-06-02T02:31:13.698Z,1006
2018-06-02T02:32:16.035Z,1006
2018-06-02T02:33:18.072Z,1006
2018-06-02T02:34:20.124Z,1006
2018-06-02T02:35:22.541Z,1006
2018-06-02T02:36:24.967Z,1006
2018-06-02T02:37:27.399Z,1006
2018-06-02T02:38:29.751Z,1006
2018-06-02T02:39:31.790Z,1006
2018-06-02T02:40:33.829Z,1006
2018-06-02T02:41:35.865Z,1006.1
2018-06-02T02:42:38.201Z,1006
2018-06-02T02:43:40.521Z,1006.1
2018-06-02T02:44:43.248Z,1006
2018-06-02T02:45:45.703Z,1006.1
2018-06-02T02:46:47.730Z,1006.1
2018-06-02T02:47:50.349Z,1006.1
2018-06-02T02:48:52.773Z,1006.1
2018-06-02T02:49:55.110Z,1006.2
2018-06-02T02:50:57.147Z,1006.2
2018-06-02T02:51:59.488Z,1006.2
2018-06-02T02:53:01.527Z,1006.2
2018-06-02T02:54:03.566Z,1006.2
2018-06-02T02:55:05.612Z,1006.2
2018-06-02T02:56:07.939Z,1006.2
2018-06-02T02:57:10.007Z,1006.2
2018-06-02T02:58:12.630Z,1006.2
2018-06-02T02:59:15.042Z,1006.2
2018-06-02T03:00:17.380Z,1006.3
2018-06-02T03:01:19.722Z,1006.3
2018-06-02T03:02:21.757Z,1006.3
2018-06-02T03:03:23.814Z,1006.3
2018-06-02T03:04:26.828Z,1006.3
2018-06-02T03:05:28.867Z,1006.3
2018-06-02T03:06:30.920Z,1006.3
2018-06-02T03:07:32.963Z,1006.3
2018-06-02T03:08:35.377Z,1006.3
2018-06-02T03:09:37.437Z,1006.4
2018-06-02T03:10:39.858Z,1006.3
2018-06-02T03:11:42.297Z,1006.3
2018-06-02T03:12:44.927Z,1006.4
2018-06-02T03:13:46.976Z,1006.4
2018-06-02T03:14:49.017Z,1006.5
2018-06-02T03:15:51.050Z,1006.5
2018-06-02T03:16:53.095Z,1006.5
2018-06-02T03:17:55.148Z,1006.5
2018-06-02T03:18:57.189Z,1006.6
2018-06-02T03:19:59.250Z,1006.6
2018-06-02T03:21:01.256Z,1006.6
2018-06-02T03:22:03.685Z,1006.6
2018-06-02T03:23:05.735Z,1006.5
2018-06-02T03:24:08.054Z,1006.5
2018-06-02T03:25:10.108Z,1006.5
2018-06-02T03:26:12.146Z,1006.5
2018-06-02T03:27:14.463Z,1006.5
2018-06-02T03:28:16.791Z,1006.5
2018-06-02T03:29:19.177Z,1006.5
2018-06-02T03:30:21.220Z,1006.5
2018-06-02T03:31:24.156Z,1006.5
2018-06-02T03:32:26.205Z,1006.5
2018-06-02T03:33:28.248Z,1006.5
2018-06-02T03:34:30.284Z,1006.5
2018-06-02T03:35:32.335Z,1006.5
2018-06-02T03:36:34.376Z,1006.6
2018-06-02T03:37:36.422Z,1006.5
2018-06-02T03:38:38.461Z,1006.5
2018-06-02T03:39:40.500Z,1006.5
2018-06-02T03:40:42.548Z,1006.5
2018-06-02T03:41:44.967Z,1006.5
2018-06-02T03:42:47.008Z,1006.6
2018-06-02T03:43:49.342Z,1006.6
2018-06-02T03:44:51.376Z,1006.6
2018-06-02T03:45:53.421Z,1006.6
2018-06-02T03:46:56.129Z,1006.6
2018-06-02T03:47:58.182Z,1006.6
2018-06-02T03:49:00.213Z,1006.6
2018-06-02T03:50:02.254Z,1006.5
2018-06-02T03:51:04.306Z,1006.6
2018-06-02T03:52:06.345Z,1006.6
2018-06-02T03:53:08.716Z,1006.6
2018-06-02T03:54:10.742Z,1006.6
2018-06-02T03:55:12.789Z,1006.6
2018-06-02T03:56:14.832Z,1006.6
2018-06-02T03:57:16.865Z,1006.6
2018-06-02T03:58:19.202Z,1006.6
2018-06-02T03:59:21.238Z,1006.7
2018-06-02T04:00:23.564Z,1006.6
2018-06-02T04:01:25.992Z,1006.7
2018-06-02T04:02:28.029Z,1006.7
2018-06-02T04:03:30.081Z,1006.7
2018-06-02T04:04:32.122Z,1006.7
2018-06-02T04:05:34.157Z,1006.7
2018-06-02T04:06:36.204Z,1006.8
2018-06-02T04:07:38.632Z,1006.8
2018-06-02T04:08:40.678Z,1006.8
2018-06-02T04:09:43.405Z,1006.8
2018-06-02T04:10:45.447Z,1006.8
2018-06-02T04:11:47.494Z,1006.8
2018-06-02T04:12:49.528Z,1006.8
2018-06-02T04:13:51.579Z,1006.8
2018-06-02T04:14:53.621Z,1006.8
2018-06-02T04:15:55.681Z,1006.8
2018-06-02T04:16:57.705Z,1006.8
2018-06-02T04:17:59.754Z,1006.8
2018-06-02T04:19:01.795Z,1006.8
2018-06-02T04:20:03.842Z,1006.9
2018-06-02T04:21:05.877Z,1006.9
2018-06-02T04:22:07.924Z,1006.9
2018-06-02T04:23:09.962Z,1006.9
2018-06-02T04:24:12.016Z,1006.9
2018-06-02T04:25:14.054Z,1006.9
2018-06-02T04:26:16.132Z,1006.9
2018-06-02T04:27:18.144Z,1006.9
2018-06-02T04:28:20.188Z,1006.9
2018-06-02T04:29:22.229Z,1006.9
2018-06-02T04:30:24.271Z,1006.9
2018-06-02T04:31:26.315Z,1007
2018-06-02T04:32:28.749Z,1007
2018-06-02T04:33:30.779Z,1007
2018-06-02T04:34:32.829Z,1007
2018-06-02T04:35:34.876Z,1007
2018-06-02T04:36:37.213Z,1007
2018-06-02T04:37:39.243Z,1006.9
2018-06-02T04:38:41.304Z,1006.9
2018-06-02T04:39:43.727Z,1006.9
2018-06-02T04:40:45.769Z,1006.9
2018-06-02T04:41:47.822Z,1006.9
2018-06-02T04:42:50.250Z,1006.9
2018-06-02T04:43:52.591Z,1006.9
2018-06-02T04:44:54.628Z,1006.9
2018-06-02T04:45:56.683Z,1006.9
2018-06-02T04:46:59.112Z,1007
2018-06-02T04:48:01.144Z,1007
2018-06-02T04:49:03.194Z,1006.9
2018-06-02T04:50:05.237Z,1006.9
2018-06-02T04:51:07.665Z,1006.9
2018-06-02T04:52:09.710Z,1006.9
2018-06-02T04:53:12.023Z,1006.9
2018-06-02T04:54:14.454Z,1006.8
2018-06-02T04:55:16.886Z,1006.9
2018-06-02T04:56:18.923Z,1006.8
2018-06-02T04:57:20.967Z,1006.8
2018-06-02T04:58:23.008Z,1006.9
2018-06-02T04:59:25.059Z,1006.9
2018-06-02T05:00:27.104Z,1006.8
2018-06-02T05:01:29.149Z,1006.8
2018-06-02T05:02:31.499Z,1006.8
2018-06-02T05:03:33.555Z,1006.8
2018-06-02T05:04:35.592Z,1006.9
2018-06-02T05:05:37.923Z,1006.9
2018-06-02T05:06:39.968Z,1006.8
2018-06-02T05:07:42.012Z,1006.8
2018-06-02T05:08:44.050Z,1006.8
2018-06-02T05:09:46.097Z,1006.9
2018-06-02T05:10:48.137Z,1006.8
2018-06-02T05:11:50.188Z,1006.8
2018-06-02T05:12:52.230Z,1006.8
2018-06-02T05:13:54.566Z,1006.9
2018-06-02T05:14:56.889Z,1006.8
2018-06-02T05:15:58.933Z,1006.8
2018-06-02T05:17:00.979Z,1006.9
2018-06-02T05:18:03.014Z,1006.8
2018-06-02T05:19:05.071Z,1006.8
2018-06-02T05:20:07.113Z,1006.8
2018-06-02T05:21:09.151Z,1006.9
2018-06-02T05:22:11.596Z,1006.9
2018-06-02T05:23:13.919Z,1006.9
2018-06-02T05:24:15.963Z,1006.8
2018-06-02T05:25:18.005Z,1006.8
2018-06-02T05:26:20.338Z,1006.8
2018-06-02T05:27:22.387Z,1006.8
2018-06-02T05:28:24.427Z,1006.8
2018-06-02T05:29:26.759Z,1006.8
2018-06-02T05:30:28.813Z,1006.8
2018-06-02T05:31:30.853Z,1006.8
2018-06-02T05:32:32.901Z,1006.8
2018-06-02T05:33:35.332Z,1006.8
2018-06-02T05:34:37.378Z,1006.8
2018-06-02T05:35:39.422Z,1006.8
2018-06-02T05:36:41.855Z,1006.8
2018-06-02T05:37:43.892Z,1006.8
2018-06-02T05:38:45.934Z,1006.8
2018-06-02T05:39:47.984Z,1006.8
2018-06-02T05:40:50.022Z,1006.8
2018-06-02T05:41:52.371Z,1006.8
2018-06-02T05:42:54.409Z,1006.8
2018-06-02T05:43:56.461Z,1006.8
2018-06-02T05:44:58.496Z,1006.8
2018-06-02T05:46:00.545Z,1006.8
2018-06-02T05:47:03.069Z,1006.8
2018-06-02T05:48:05.390Z,1006.8
2018-06-02T05:49:07.429Z,1006.8
2018-06-02T05:50:09.866Z,1006.8
2018-06-02T05:51:12.198Z,1006.9
2018-06-02T05:52:14.238Z,1006.9
2018-06-02T05:53:16.671Z,1006.9
2018-06-02T05:54:19.007Z,1006.8
2018-06-02T05:55:21.045Z,1006.9
2018-06-02T05:56:23.092Z,1006.9
2018-06-02T05:57:25.138Z,1006.9
2018-06-02T05:58:27.188Z,1006.9
2018-06-02T05:59:29.242Z,1006.9
2018-06-02T06:00:31.288Z,1006.9
2018-06-02T06:01:33.528Z,1006.9
2018-06-02T06:02:35.572Z,1006.9
2018-06-02T06:03:38.007Z,1006.8
2018-06-02T06:04:40.342Z,1006.9
2018-06-02T06:05:42.387Z,1006.9
2018-06-02T06:06:44.436Z,1006.9
2018-06-02T06:07:46.771Z,1006.8
2018-06-02T06:08:49.186Z,1006.9
2018-06-02T06:09:51.238Z,1006.8
2018-06-02T06:10:53.293Z,1006.8
2018-06-02T06:11:55.720Z,1006.8
2018-06-02T06:12:58.461Z,1006.8
2018-06-02T06:14:00.499Z,1006.8
2018-06-02T06:15:02.548Z,1006.8
2018-06-02T06:16:04.605Z,1006.8
2018-06-02T06:17:06.650Z,1006.8
2018-06-02T06:18:08.689Z,1006.8
2018-06-02T06:19:10.743Z,1006.8
2018-06-02T06:20:12.777Z,1006.9
2018-06-02T06:21:14.827Z,1006.9
2018-06-02T06:22:16.871Z,1006.9
2018-06-02T06:23:18.915Z,1006.9
2018-06-02T06:24:20.974Z,1006.9
2018-06-02T06:25:23.005Z,1006.9
2018-06-02T06:26:25.048Z,1006.9
2018-06-02T06:27:27.102Z,1006.9
2018-06-02T06:28:29.425Z,1006.9
2018-06-02T06:29:31.483Z,1006.9
2018-06-02T06:30:33.524Z,1006.9
2018-06-02T06:31:35.569Z,1006.9
2018-06-02T06:32:37.625Z,1006.9
2018-06-02T06:33:39.667Z,1006.9
2018-06-02T06:34:42.031Z,1006.9
2018-06-02T06:35:44.083Z,1006.9
2018-06-02T06:36:46.120Z,1006.9
2018-06-02T06:37:48.184Z,1006.9
2018-06-02T06:38:50.225Z,1006.9
2018-06-02T06:39:52.272Z,1006.9
2018-06-02T06:40:54.618Z,1006.9
2018-06-02T06:41:56.655Z,1006.9
2018-06-02T06:42:59.019Z,1006.9
2018-06-02T06:44:01.052Z,1006.8
2018-06-02T06:45:03.381Z,1006.9
2018-06-02T06:46:43.798Z,1006.9
2018-06-02T06:47:45.807Z,1006.8
2018-06-02T06:48:47.815Z,1006.9
2018-06-02T06:49:50.201Z,1006.9
2018-06-02T06:50:52.205Z,1006.9
2018-06-02T06:51:54.497Z,1006.9
2018-06-02T06:52:56.504Z,1006.9
2018-06-02T06:53:58.505Z,1006.9
2018-06-02T06:55:00.514Z,1007
2018-06-02T06:56:02.520Z,1007
2018-06-02T06:57:04.527Z,1007
2018-06-02T06:58:06.535Z,1007
2018-06-02T06:59:08.556Z,1007
2018-06-02T07:00:10.573Z,1007
2018-06-02T07:01:12.857Z,1007
2018-06-02T07:02:14.870Z,1007
2018-06-02T07:03:16.881Z,1007
2018-06-02T07:04:18.887Z,1007
2018-06-02T07:05:21.284Z,1007
2018-06-02T07:06:23.280Z,1007
2018-06-02T07:07:25.682Z,1007
2018-06-02T07:08:27.985Z,1007
2018-06-02T07:09:29.992Z,1007
2018-06-02T07:10:32.011Z,1007
2018-06-02T07:11:34.019Z,1007
2018-06-02T07:12:36.019Z,1007
2018-06-02T07:13:38.033Z,1007
2018-06-02T07:14:40.038Z,1007
2018-06-02T07:15:42.053Z,1007
2018-06-02T07:16:44.398Z,1007
2018-06-02T07:17:46.459Z,1007
2018-06-02T07:18:48.416Z,1007
2018-06-02T07:19:50.423Z,1007
2018-06-02T07:20:52.438Z,1007
2018-06-02T07:21:54.445Z,1007
2018-06-02T07:22:56.462Z,1007.1
2018-06-02T07:23:58.471Z,1007
2018-06-02T07:25:00.467Z,1007
2018-06-02T07:26:02.474Z,1007
2018-06-02T07:27:04.487Z,1007
2018-06-02T07:28:06.497Z,1007.1
2018-06-02T07:29:08.505Z,1007
2018-06-02T07:30:10.521Z,1007
2018-06-02T07:31:12.792Z,1007.1
2018-06-02T07:32:14.803Z,1007.1
2018-06-02T07:33:16.805Z,1007.1
2018-06-02T07:34:18.811Z,1007.1
2018-06-02T07:35:20.824Z,1007.1
2018-06-02T07:36:23.114Z,1007.1
2018-06-02T07:37:25.119Z,1007.2
2018-06-02T07:38:27.808Z,1007.2
2018-06-02T07:39:29.826Z,1007.2
2018-06-02T07:40:31.840Z,1007.2
2018-06-02T07:41:33.845Z,1007.1
2018-06-02T07:42:35.855Z,1007.2
2018-06-02T07:43:37.862Z,1007.2
2018-06-02T07:44:40.246Z,1007.2
2018-06-02T07:45:42.263Z,1007.2
2018-06-02T07:46:44.264Z,1007.2
2018-06-02T07:47:46.656Z,1007.2
2018-06-02T07:48:48.659Z,1007.2
2018-06-02T07:49:50.722Z,1007.2
2018-06-02T07:50:52.683Z,1007.2
2018-06-02T07:51:54.687Z,1007.3
2018-06-02T07:52:56.701Z,1007.3
2018-06-02T07:53:58.704Z,1007.3
2018-06-02T07:55:00.997Z,1007.3
2018-06-02T07:56:03.290Z,1007.3
2018-06-02T07:57:05.304Z,1007.3
2018-06-02T07:58:07.316Z,1007.3
2018-06-02T07:59:09.602Z,1007.4
2018-06-02T08:00:11.600Z,1007.4
2018-06-02T08:01:13.608Z,1007.3
2018-06-02T08:02:15.615Z,1007.4
2018-06-02T08:03:18.010Z,1007.4
2018-06-02T08:04:20.024Z,1007.4
2018-06-02T08:05:22.019Z,1007.4
2018-06-02T08:06:24.031Z,1007.4
2018-06-02T08:07:26.049Z,1007.4
2018-06-02T08:08:28.108Z,1007.4
2018-06-02T08:09:30.828Z,1007.4
2018-06-02T08:10:32.834Z,1007.4
2018-06-02T08:11:34.843Z,1007.5
2018-06-02T08:12:37.148Z,1007.5
2018-06-02T08:13:39.141Z,1007.5
2018-06-02T08:14:41.166Z,1007.5
2018-06-02T08:15:43.460Z,1007.5
2018-06-02T08:16:45.464Z,1007.5
2018-06-02T08:17:47.864Z,1007.5
2018-06-02T08:18:49.876Z,1007.5
2018-06-02T08:19:51.886Z,1007.5
2018-06-02T08:20:53.900Z,1007.5
2018-06-02T08:21:55.893Z,1007.5
2018-06-02T08:22:57.922Z,1007.5
2018-06-02T08:24:00.474Z,1007.6
2018-06-02T08:25:02.485Z,1007.6
2018-06-02T08:26:04.505Z,1007.6
2018-06-02T08:27:06.511Z,1007.6
2018-06-02T08:28:08.520Z,1007.6
2018-06-02T08:29:10.920Z,1007.6
2018-06-02T08:30:12.924Z,1007.6
2018-06-02T08:31:14.945Z,1007.6
2018-06-02T08:32:16.950Z,1007.7
2018-06-02T08:33:18.997Z,1007.7
2018-06-02T08:34:20.983Z,1007.7
2018-06-02T08:35:22.987Z,1007.7
2018-06-02T08:36:25.278Z,1007.7
2018-06-02T08:37:27.576Z,1007.8
2018-06-02T08:38:29.579Z,1007.8
2018-06-02T08:39:31.598Z,1007.7
2018-06-02T08:40:33.599Z,1007.8
2018-06-02T08:41:35.992Z,1007.7
2018-06-02T08:42:38.002Z,1007.7
2018-06-02T08:43:40.395Z,1007.7
2018-06-02T08:44:42.397Z,1007.8
2018-06-02T08:45:44.419Z,1007.7
2018-06-02T08:46:46.436Z,1007.7
2018-06-02T08:47:48.432Z,1007.7
2018-06-02T08:48:50.836Z,1007.7
2018-06-02T08:49:52.854Z,1007.7
2018-06-02T08:50:55.138Z,1007.7
2018-06-02T08:51:57.150Z,1007.8
2018-06-02T08:52:59.159Z,1007.8
2018-06-02T08:54:01.460Z,1007.8
2018-06-02T08:55:03.450Z,1007.7
2018-06-02T08:56:05.734Z,1007.7
2018-06-02T08:57:07.756Z,1007.7
2018-06-02T08:58:09.761Z,1007.7
2018-06-02T08:59:12.046Z,1007.7
2018-06-02T09:00:14.056Z,1007.7
2018-06-02T09:01:16.068Z,1007.7
2018-06-02T09:02:18.072Z,1007.7
2018-06-02T09:03:20.081Z,1007.7
2018-06-02T09:04:22.102Z,1007.7
2018-06-02T09:05:24.164Z,1007.7
2018-06-02T09:06:26.112Z,1007.7
2018-06-02T09:07:28.505Z,1007.7
2018-06-02T09:08:30.522Z,1007.7
2018-06-02T09:09:32.533Z,1007.7
2018-06-02T09:10:34.545Z,1007.7
2018-06-02T09:11:36.848Z,1007.6
2018-06-02T09:12:38.866Z,1007.7
2018-06-02T09:13:41.706Z,1007.7
2018-06-02T09:14:44.099Z,1007.7
2018-06-02T09:15:46.401Z,1007.7
2018-06-02T09:16:48.408Z,1007.7
2018-06-02T09:17:50.412Z,1007.7
2018-06-02T09:18:52.429Z,1007.7
2018-06-02T09:19:54.438Z,1007.6
2018-06-02T09:20:56.465Z,1007.6
2018-06-02T09:21:58.470Z,1007.6
2018-06-02T09:23:00.477Z,1007.7
2018-06-02T09:24:02.530Z,1007.7
2018-06-02T09:25:04.867Z,1007.7
2018-06-02T09:26:06.888Z,1007.7
2018-06-02T09:27:08.905Z,1007.7
2018-06-02T09:28:10.901Z,1007.7
2018-06-02T09:29:12.991Z,1007.7
2018-06-02T09:30:15.275Z,1007.7
2018-06-02T09:31:17.308Z,1007.7
2018-06-02T09:32:19.341Z,1007.7
2018-06-02T09:33:21.664Z,1007.7
2018-06-02T09:34:24.099Z,1007.7
2018-06-02T09:35:26.328Z,1007.7
2018-06-02T09:36:28.338Z,1007.6
2018-06-02T09:37:30.384Z,1007.7
2018-06-02T09:38:32.408Z,1007.7
2018-06-02T09:39:34.425Z,1007.7
2018-06-02T09:40:36.829Z,1007.7
2018-06-02T09:41:39.123Z,1007.7
2018-06-02T09:42:41.141Z,1007.7
2018-06-02T09:43:43.541Z,1007.7
2018-06-02T09:44:45.597Z,1007.6
2018-06-02T09:45:47.569Z,1007.7
2018-06-02T09:46:49.572Z,1007.7
2018-06-02T09:47:51.595Z,1007.7
2018-06-02T09:48:53.808Z,1007.7
2018-06-02T09:49:56.027Z,1007.7
2018-06-02T09:50:58.044Z,1007.8
2018-06-02T09:52:00.060Z,1007.7
2018-06-02T09:53:02.122Z,1007.8
2018-06-02T09:54:04.133Z,1007.7
2018-06-02T09:55:06.144Z,1007.7
2018-06-02T09:56:08.454Z,1007.7
2018-06-02T09:57:10.457Z,1007.8
2018-06-02T09:58:12.480Z,1007.7
2018-06-02T09:59:14.802Z,1007.8
2018-06-02T10:00:17.094Z,1007.8
2018-06-02T10:01:19.134Z,1007.8
2018-06-02T10:02:21.149Z,1007.8
2018-06-02T10:03:23.202Z,1007.8
2018-06-02T10:04:25.902Z,1007.8
2018-06-02T10:05:27.930Z,1007.8
2018-06-02T10:06:30.224Z,1007.9
2018-06-02T10:07:32.881Z,1007.8
2018-06-02T10:08:34.928Z,1007.7
2018-06-02T10:09:37.288Z,1007.8
2018-06-02T10:10:39.372Z,1007.8
2018-06-02T10:11:41.354Z,1007.8
2018-06-02T10:12:43.419Z,1007.8
2018-06-02T10:13:45.493Z,1007.8
2018-06-02T10:14:47.546Z,1007.8
2018-06-02T10:15:49.619Z,1007.8
2018-06-02T10:16:51.677Z,1007.8
2018-06-02T10:17:54.028Z,1007.8
2018-06-02T10:18:56.370Z,1007.8
2018-06-02T10:19:58.418Z,1007.8
2018-06-02T10:21:00.841Z,1007.8
2018-06-02T10:22:03.182Z,1007.8
2018-06-02T10:23:05.240Z,1007.8
2018-06-02T10:24:07.302Z,1007.8
2018-06-02T10:25:09.368Z,1007.8
2018-06-02T10:26:11.415Z,1007.8
2018-06-02T10:27:13.488Z,1007.8
2018-06-02T10:28:15.539Z,1007.8
2018-06-02T10:29:17.982Z,1007.8
2018-06-02T10:30:20.043Z,1007.8
2018-06-02T10:31:22.100Z,1007.8
2018-06-02T10:32:24.270Z,1007.8
2018-06-02T10:33:26.835Z,1007.8
2018-06-02T10:34:28.880Z,1007.8
2018-06-02T10:35:31.004Z,1007.8
2018-06-02T10:36:33.743Z,1007.8
2018-06-02T10:37:35.799Z,1007.8
2018-06-02T10:38:38.130Z,1007.7
2018-06-02T10:39:40.205Z,1007.8
2018-06-02T10:40:42.430Z,1007.8
2018-06-02T10:41:44.474Z,1007.8
2018-06-02T10:42:46.542Z,1007.8
2018-06-02T10:43:49.103Z,1007.8
2018-06-02T10:44:51.161Z,1007.8
2018-06-02T10:45:53.224Z,1007.8
2018-06-02T10:46:55.288Z,1007.8
2018-06-02T10:47:57.347Z,1007.8
2018-06-02T10:48:59.407Z,1007.8
2018-06-02T10:50:01.458Z,1007.8
2018-06-02T10:51:03.535Z,1007.9
2018-06-02T10:52:05.595Z,1007.9
2018-06-02T10:53:07.652Z,1007.8
2018-06-02T10:54:09.720Z,1007.9
2018-06-02T10:55:11.764Z,1007.9
2018-06-02T10:56:13.824Z,1008
2018-06-02T10:57:15.884Z,1007.9
2018-06-02T10:58:17.937Z,1007.9
2018-06-02T10:59:20.300Z,1007.9
2018-06-02T11:00:22.346Z,1007.9
2018-06-02T11:01:24.398Z,1007.9
2018-06-02T11:02:26.506Z,1007.9
2018-06-02T11:03:28.511Z,1007.9
2018-06-02T11:04:30.955Z,1007.9
2018-06-02T11:05:33.018Z,1007.9
2018-06-02T11:06:35.074Z,1007.8
2018-06-02T11:07:37.423Z,1007.8
2018-06-02T11:08:39.465Z,1007.8
2018-06-02T11:09:41.535Z,1007.8
2018-06-02T11:10:43.876Z,1007.8
2018-06-02T11:11:45.934Z,1007.9
2018-06-02T11:12:47.995Z,1007.8
2018-06-02T11:13:50.049Z,1007.8
2018-06-02T11:14:52.416Z,1007.8
2018-06-02T11:15:54.462Z,1007.8
2018-06-02T11:16:56.923Z,1007.9
2018-06-02T11:17:58.978Z,1007.8
2018-06-02T11:19:01.703Z,1007.9
2018-06-02T11:20:03.760Z,1007.8
2018-06-02T11:21:05.819Z,1007.9
2018-06-02T11:22:08.566Z,1007.9
2018-06-02T11:23:10.621Z,1007.8
2018-06-02T11:24:12.679Z,1007.9
2018-06-02T11:25:15.326Z,1007.9
2018-06-02T11:26:17.370Z,1008
2018-06-02T11:27:19.432Z,1007.9
2018-06-02T11:28:21.486Z,1007.9
2018-06-02T11:29:23.542Z,1007.9
2018-06-02T11:30:25.599Z,1007.9
2018-06-02T11:31:27.654Z,1007.9
2018-06-02T11:32:30.005Z,1007.9
2018-06-02T11:33:32.057Z,1008
2018-06-02T11:34:34.112Z,1008
2018-06-02T11:35:36.171Z,1008
2018-06-02T11:36:38.804Z,1007.9
2018-06-02T11:37:41.149Z,1007.9
2018-06-02T11:38:43.205Z,1007.9
2018-06-02T11:39:45.544Z,1007.9
2018-06-02T11:40:47.612Z,1007.9
2018-06-02T11:41:49.661Z,1008
2018-06-02T11:42:52.019Z,1008
2018-06-02T11:43:54.353Z,1008
2018-06-02T11:44:56.413Z,1008.1
2018-06-02T11:45:58.473Z,1008
2018-06-02T11:47:00.528Z,1008.1
2018-06-02T11:48:02.888Z,1008.1
2018-06-02T11:49:05.344Z,1008.1
2018-06-02T11:50:07.376Z,1008.2
2018-06-02T11:51:09.704Z,1008.2
2018-06-02T11:52:12.173Z,1008.2
2018-06-02T11:53:14.613Z,1008.1
2018-06-02T11:54:16.659Z,1008.1
2018-06-02T11:55:18.717Z,1008.1
2018-06-02T11:56:21.464Z,1008
2018-06-02T11:57:23.527Z,1008.1
2018-06-02T11:58:25.584Z,1008.1
2018-06-02T11:59:27.646Z,1008.1
2018-06-02T12:00:29.705Z,1008.1
2018-06-02T12:01:31.751Z,1008.1
2018-06-02T12:02:33.812Z,1008.1
2018-06-02T12:03:35.864Z,1008.2
2018-06-02T12:04:37.925Z,1008.2
2018-06-02T12:05:39.978Z,1008.1
2018-06-02T12:06:42.027Z,1008.2
2018-06-02T12:07:44.091Z,1008.2
2018-06-02T12:08:46.140Z,1008.2
2018-06-02T12:09:48.198Z,1008.2
2018-06-02T12:10:50.254Z,1008.2
2018-06-02T12:11:52.311Z,1008.2
2018-06-02T12:12:54.372Z,1008.2
2018-06-02T12:13:57.123Z,1008.2
2018-06-02T12:14:59.440Z,1008.2
2018-06-02T12:16:01.506Z,1008.2
2018-06-02T12:17:03.558Z,1008.3
2018-06-02T12:18:05.615Z,1008.2
2018-06-02T12:19:07.664Z,1008.2
2018-06-02T12:20:09.725Z,1008.2
2018-06-02T12:21:11.768Z,1008.2
2018-06-02T12:22:14.210Z,1008.2
2018-06-02T12:23:16.280Z,1008.2
2018-06-02T12:24:18.337Z,1008.2
2018-06-02T12:25:20.382Z,1008.2
2018-06-02T12:26:22.438Z,1008.2
2018-06-02T12:27:24.493Z,1008.2
2018-06-02T12:28:26.622Z,1008.2
2018-06-02T12:29:29.060Z,1008.2
2018-06-02T12:30:31.106Z,1008.2
2018-06-02T12:31:33.154Z,1008.2
2018-06-02T12:32:35.217Z,1008.2
2018-06-02T12:33:37.269Z,1008.2
2018-06-02T12:34:39.984Z,1008.3
2018-06-02T12:35:42.042Z,1008.3
2018-06-02T12:36:44.099Z,1008.2
2018-06-02T12:37:46.147Z,1008.3
2018-06-02T12:38:48.204Z,1008.3
2018-06-02T12:39:50.251Z,1008.3
2018-06-02T12:40:52.312Z,1008.3
2018-06-02T12:41:54.359Z,1008.2
2018-06-02T12:42:56.411Z,1008.2
2018-06-02T12:43:58.473Z,1008.2
2018-06-02T12:45:00.572Z,1008.3
2018-06-02T12:46:02.908Z,1008.3
2018-06-02T12:47:04.959Z,1008.3
2018-06-02T12:48:07.311Z,1008.2
2018-06-02T12:49:09.359Z,1008.2
2018-06-02T12:50:11.412Z,1008.2
2018-06-02T12:51:13.470Z,1008.3
2018-06-02T12:52:15.519Z,1008.2
2018-06-02T12:53:18.315Z,1008.2
2018-06-02T12:54:20.646Z,1008.1
2018-06-02T12:55:22.701Z,1008.2
2018-06-02T12:56:25.054Z,1008.2
2018-06-02T12:57:27.954Z,1008.2
2018-06-02T12:58:30.293Z,1008.2
2018-06-02T12:59:32.344Z,1008.2
2018-06-02T13:00:34.395Z,1008.2
2018-06-02T13:01:36.444Z,1008.2
2018-06-02T13:02:38.877Z,1008.2
2018-06-02T13:03:40.945Z,1008.3